Time;durP1;ratioP1;P1;durP2;ratioP2;P2;SDS_P1;SDS_P2;PMS_P1;PMS_P2;Temp;Humidity;BMP_temperature;BMP_pressure;BME280_temperature;BME280_humidity;BME280_pressure;Samples;Min_cycle;Max_cycle;Signal;HPM_P1;HPM_P2
2022/10/10 00:02:06;;;;;;;;;;;11.80;99.90;;;;;;8392114;28;19928;-79
2022/10/10 00:06:08;;;;;;;;;;;11.80;99.90;;;;;;8396488;28;19924;-79
2022/10/10 00:10:09;;;;;;;;;;;11.70;99.90;;;;;;8393436;28;19920;-79
2022/10/10 00:14:11;;;;;;;;;;;11.70;99.90;;;;;;8389595;28;19924;-79
2022/10/10 00:18:13;;;;;;;;;;;11.70;99.90;;;;;;8399039;28;19937;-79
2022/10/10 00:22:14;;;;;;;;;;;11.60;99.90;;;;;;8393729;28;19923;-79
2022/10/10 00:26:16;;;;;;;;;;;11.60;99.90;;;;;;8408018;28;19931;-79
2022/10/10 00:30:19;;;;;;;;;;;11.60;99.90;;;;;;8397598;28;19927;-80
2022/10/10 00:34:21;;;;;;;;;;;11.60;99.90;;;;;;8374661;28;19920;-79
2022/10/10 00:38:23;;;;;;;;;;;11.60;99.90;;;;;;8390473;28;19923;-79
2022/10/10 00:42:24;;;;;;;;;;;11.50;99.90;;;;;;8403826;28;19924;-80
2022/10/10 00:46:26;;;;;;;;;;;11.50;99.90;;;;;;8420212;28;19932;-79
2022/10/10 00:50:28;;;;;;;;;;;11.50;99.90;;;;;;8412629;28;19998;-79
2022/10/10 00:54:31;;;;;;;;;;;11.50;99.90;;;;;;8419545;28;20297;-79
2022/10/10 00:58:34;;;;;;;;;;;11.40;99.90;;;;;;8416099;28;19924;-79
2022/10/10 01:02:36;;;;;;;;;;;11.40;99.90;;;;;;8391540;28;19932;-79
2022/10/10 01:06:37;;;;;;;;;;;11.30;99.90;;;;;;8376171;28;20321;-79
2022/10/10 01:10:57;;;;;;;;;;;11.30;99.90;;;;;;8402083;28;20533;-81
2022/10/10 01:15:13;;;;;;;;;;;11.30;99.90;;;;;;8413435;27;19920;-80
2022/10/10 01:19:15;;;;;;;;;;;11.30;99.90;;;;;;8398721;28;19920;-80
2022/10/10 01:23:19;;;;;;;;;;;11.30;99.90;;;;;;8407413;28;19935;-79
2022/10/10 01:27:24;;;;;;;;;;;11.20;99.90;;;;;;8402998;28;19928;-80
2022/10/10 01:31:33;;;;;;;;;;;11.20;99.90;;;;;;8399403;28;20383;-80
2022/10/10 01:35:38;;;;;;;;;;;11.20;99.90;;;;;;8411472;28;19920;-80
2022/10/10 01:39:42;;;;;;;;;;;11.20;99.90;;;;;;8396268;28;20374;-80
2022/10/10 01:43:44;;;;;;;;;;;11.20;99.90;;;;;;8398291;28;19964;-80
2022/10/10 01:47:46;;;;;;;;;;;11.10;99.90;;;;;;8400294;28;19930;-79
2022/10/10 01:51:48;;;;;;;;;;;11.00;99.90;;;;;;8411410;28;19934;-80
2022/10/10 01:55:49;;;;;;;;;;;11.00;99.90;;;;;;8399871;28;20169;-79
2022/10/10 02:00:08;;;;;;;;;;;11.00;99.90;;;;;;8401337;28;20488;-79
2022/10/10 02:04:24;;;;;;;;;;;11.00;99.90;;;;;;8402642;28;19933;-79
2022/10/10 02:08:33;;;;;;;;;;;11.00;99.90;;;;;;8399945;28;19995;-79
2022/10/10 02:12:35;;;;;;;;;;;11.00;99.90;;;;;;8394345;28;19931;-79
2022/10/10 02:16:39;;;;;;;;;;;11.00;99.90;;;;;;8395314;28;19928;-79
2022/10/10 02:20:42;;;;;;;;;;;11.00;99.90;;;;;;8397905;28;19924;-79
2022/10/10 02:24:44;;;;;;;;;;;11.00;99.90;;;;;;8398197;28;19931;-79
2022/10/10 02:28:51;;;;;;;;;;;11.00;99.90;;;;;;8404854;28;19924;-79
2022/10/10 02:32:57;;;;;;;;;;;11.00;99.90;;;;;;8401258;28;19926;-79
2022/10/10 02:37:00;;;;;;;;;;;10.90;99.90;;;;;;8398053;28;20011;-80
2022/10/10 02:41:02;;;;;;;;;;;10.90;99.90;;;;;;8395951;28;19921;-79
2022/10/10 02:45:05;;;;;;;;;;;10.90;99.90;;;;;;8386135;28;19936;-79
2022/10/10 02:49:07;;;;;;;;;;;10.90;99.90;;;;;;8401284;28;19926;-79
2022/10/10 02:53:08;;;;;;;;;;;10.90;99.90;;;;;;8397356;28;20011;-80
2022/10/10 02:57:10;;;;;;;;;;;10.90;99.90;;;;;;8403890;28;19931;-80
2022/10/10 03:01:12;;;;;;;;;;;10.90;99.90;;;;;;8413320;28;20027;-79
2022/10/10 03:05:13;;;;;;;;;;;10.90;99.90;;;;;;8395130;28;20405;-79
2022/10/10 03:09:15;;;;;;;;;;;10.80;99.90;;;;;;8396054;28;19930;-79
2022/10/10 03:13:17;;;;;;;;;;;10.80;99.90;;;;;;8369986;28;20281;-79
2022/10/10 03:17:18;;;;;;;;;;;10.80;99.90;;;;;;8390910;28;19920;-79
2022/10/10 03:21:20;;;;;;;;;;;10.80;99.90;;;;;;8398645;28;20007;-79
2022/10/10 03:25:22;;;;;;;;;;;10.80;99.90;;;;;;8390567;28;19923;-79
2022/10/10 03:29:23;;;;;;;;;;;10.80;99.90;;;;;;8397999;28;20011;-79
2022/10/10 03:33:25;;;;;;;;;;;10.80;99.90;;;;;;8399338;28;19936;-79
2022/10/10 03:37:26;;;;;;;;;;;10.80;99.90;;;;;;8397884;28;19928;-79
2022/10/10 03:41:28;;;;;;;;;;;10.80;99.90;;;;;;8390627;28;20279;-80
2022/10/10 03:45:30;;;;;;;;;;;10.80;99.90;;;;;;8379634;28;19920;-79
2022/10/10 03:49:31;;;;;;;;;;;10.80;99.90;;;;;;8402951;28;19920;-79
2022/10/10 03:53:33;;;;;;;;;;;10.70;99.90;;;;;;8399352;28;19951;-79
2022/10/10 03:57:34;;;;;;;;;;;10.70;99.90;;;;;;8376435;28;19927;-79
2022/10/10 04:01:36;;;;;;;;;;;10.70;99.90;;;;;;8394434;28;19924;-79
2022/10/10 04:05:38;;;;;;;;;;;10.70;99.90;;;;;;8391871;28;19962;-79
2022/10/10 04:09:39;;;;;;;;;;;10.60;99.90;;;;;;8399200;28;19928;-79
2022/10/10 04:13:41;;;;;;;;;;;10.50;99.90;;;;;;8396662;28;19950;-79
2022/10/10 04:17:43;;;;;;;;;;;10.50;99.90;;;;;;8384460;28;20299;-80
2022/10/10 04:21:44;;;;;;;;;;;10.50;99.90;;;;;;8397896;28;19930;-79
2022/10/10 04:25:49;;;;;;;;;;;10.40;99.90;;;;;;8413792;28;19924;-80
2022/10/10 04:29:51;;;;;;;;;;;10.30;99.90;;;;;;8418282;28;19919;-79
2022/10/10 04:33:52;;;;;;;;;;;10.20;99.90;;;;;;8410580;28;20360;-79
2022/10/10 04:37:54;;;;;;;;;;;10.10;99.90;;;;;;8396230;28;19919;-79
2022/10/10 04:41:55;;;;;;;;;;;10.10;99.90;;;;;;8431291;28;19926;-79
2022/10/10 04:45:57;;;;;;;;;;;10.00;99.90;;;;;;8408334;28;19924;-80
2022/10/10 04:49:59;;;;;;;;;;;9.90;99.90;;;;;;8420281;28;20007;-80
2022/10/10 04:54:00;;;;;;;;;;;9.80;99.90;;;;;;8451141;28;19919;-79
2022/10/10 04:58:02;;;;;;;;;;;9.80;99.90;;;;;;8430373;28;20016;-80
2022/10/10 05:02:04;;;;;;;;;;;9.70;99.90;;;;;;8443379;28;19920;-80
2022/10/10 05:06:06;;;;;;;;;;;9.60;99.90;;;;;;8429726;28;19927;-79
2022/10/10 05:10:08;;;;;;;;;;;9.60;99.90;;;;;;8427599;28;19927;-80
2022/10/10 05:14:10;;;;;;;;;;;9.50;99.90;;;;;;8420427;28;19920;-79
2022/10/10 05:18:11;;;;;;;;;;;9.50;99.90;;;;;;8405474;28;19920;-79
2022/10/10 05:22:13;;;;;;;;;;;9.50;99.90;;;;;;8415451;28;19920;-79
2022/10/10 05:26:14;;;;;;;;;;;9.50;99.90;;;;;;8420576;28;19928;-79
2022/10/10 05:30:16;;;;;;;;;;;9.40;99.90;;;;;;8410411;28;19920;-79
2022/10/10 05:34:18;;;;;;;;;;;9.40;99.90;;;;;;8410240;28;19974;-79
2022/10/10 05:38:20;;;;;;;;;;;9.40;99.90;;;;;;8429874;28;19920;-79
2022/10/10 05:42:22;;;;;;;;;;;9.30;99.90;;;;;;8391207;28;20304;-80
2022/10/10 05:46:25;;;;;;;;;;;9.30;99.90;;;;;;8430896;28;20003;-80
2022/10/10 05:50:35;;;;;;;;;;;9.20;99.90;;;;;;8438068;28;20258;-79
2022/10/10 05:54:36;;;;;;;;;;;9.20;99.90;;;;;;8431504;28;20454;-80
2022/10/10 05:58:38;;;;;;;;;;;9.20;99.90;;;;;;8398146;28;19959;-79
2022/10/10 06:02:40;;;;;;;;;;;9.20;99.90;;;;;;8406733;28;19957;-79
2022/10/10 06:06:41;;;;;;;;;;;9.10;99.90;;;;;;8395649;28;20023;-80
2022/10/10 06:10:44;;;;;;;;;;;9.10;99.90;;;;;;8416419;28;20011;-80
2022/10/10 06:14:45;;;;;;;;;;;9.10;99.90;;;;;;8416068;28;19979;-79
2022/10/10 06:18:47;;;;;;;;;;;9.10;99.90;;;;;;8394883;28;19928;-80
2022/10/10 06:22:49;;;;;;;;;;;9.00;99.90;;;;;;8433418;27;19934;-80
2022/10/10 06:26:51;;;;;;;;;;;9.10;99.90;;;;;;8431082;28;19948;-80
2022/10/10 06:30:52;;;;;;;;;;;9.00;99.90;;;;;;8432161;28;19924;-79
2022/10/10 06:34:54;;;;;;;;;;;9.10;99.90;;;;;;8412830;28;19927;-80
2022/10/10 06:38:55;;;;;;;;;;;9.10;99.90;;;;;;8428978;28;20379;-79
2022/10/10 06:42:57;;;;;;;;;;;9.10;99.90;;;;;;8429661;28;19926;-80
2022/10/10 06:46:58;;;;;;;;;;;9.10;99.90;;;;;;8428897;28;19920;-79
2022/10/10 06:51:02;;;;;;;;;;;9.20;99.90;;;;;;8435155;27;19921;-79
2022/10/10 06:55:04;;;;;;;;;;;9.20;99.90;;;;;;8427143;28;19921;-79
2022/10/10 06:59:06;;;;;;;;;;;9.30;99.90;;;;;;8423351;28;19926;-79
2022/10/10 07:03:10;;;;;;;;;;;9.40;99.90;;;;;;8402189;28;19920;-80
2022/10/10 07:07:11;;;;;;;;;;;9.50;99.90;;;;;;8416564;28;19928;-79
2022/10/10 07:11:13;;;;;;;;;;;9.60;99.90;;;;;;8410946;28;19934;-79
2022/10/10 07:15:15;;;;;;;;;;;9.70;99.90;;;;;;8432642;28;19935;-79
2022/10/10 07:19:17;;;;;;;;;;;9.80;99.90;;;;;;8424962;28;19930;-78
2022/10/10 07:23:19;;;;;;;;;;;9.90;99.90;;;;;;8438445;28;20312;-78
2022/10/10 07:27:21;;;;;;;;;;;10.00;99.90;;;;;;8413131;28;20014;-78
2022/10/10 07:31:22;;;;;;;;;;;10.10;99.90;;;;;;8433588;27;19923;-78
2022/10/10 07:35:24;;;;;;;;;;;10.20;99.90;;;;;;8437865;28;19923;-78
2022/10/10 07:39:26;;;;;;;;;;;10.40;99.90;;;;;;8427349;28;20290;-79
2022/10/10 07:43:27;;;;;;;;;;;10.50;99.90;;;;;;8431246;28;19936;-78
2022/10/10 07:47:29;;;;;;;;;;;10.70;99.90;;;;;;8426525;28;19926;-78
2022/10/10 07:51:31;;;;;;;;;;;10.80;99.90;;;;;;8407496;28;19976;-77
2022/10/10 07:55:33;;;;;;;;;;;10.90;99.90;;;;;;8426601;28;19924;-78
2022/10/10 07:59:35;;;;;;;;;;;10.90;99.90;;;;;;8417885;28;20374;-78
2022/10/10 08:03:37;;;;;;;;;;;11.00;99.90;;;;;;8396608;28;19928;-78
2022/10/10 08:07:38;;;;;;;;;;;11.10;99.90;;;;;;8393971;28;19926;-77
2022/10/10 08:11:40;;;;;;;;;;;11.20;99.90;;;;;;8378128;28;19927;-78
2022/10/10 08:15:42;;;;;;;;;;;11.30;99.90;;;;;;8394500;28;19981;-77
2022/10/10 08:19:43;;;;;;;;;;;11.40;99.90;;;;;;8371163;28;19920;-77
2022/10/10 08:23:45;;;;;;;;;;;11.60;99.90;;;;;;8389195;28;19935;-77
2022/10/10 08:27:46;;;;;;;;;;;11.80;99.90;;;;;;8381535;28;19968;-78
2022/10/10 08:31:48;;;;;;;;;;;11.90;99.90;;;;;;8398029;28;19932;-77
2022/10/10 08:35:50;;;;;;;;;;;12.20;99.90;;;;;;8379710;28;19938;-78
2022/10/10 08:39:51;;;;;;;;;;;12.40;99.90;;;;;;8395069;28;20528;-78
2022/10/10 08:43:55;;;;;;;;;;;12.60;99.90;;;;;;8402445;28;19932;-79
2022/10/10 08:47:59;;;;;;;;;;;12.80;99.90;;;;;;8396359;28;19919;-77
2022/10/10 08:52:12;;;;;;;;;;;12.90;99.90;;;;;;8392644;28;19921;-77
2022/10/10 08:56:16;;;;;;;;;;;13.00;99.90;;;;;;8366073;28;19920;-78
2022/10/10 09:00:20;;;;;;;;;;;13.10;99.90;;;;;;8401279;28;19926;-77
2022/10/10 09:04:22;;;;;;;;;;;13.20;99.90;;;;;;8399898;28;20015;-77
2022/10/10 09:08:38;;;;;;;;;;;13.20;99.90;;;;;;8427123;28;19924;-77
2022/10/10 09:13:11;;;;;;;;;;;13.20;99.90;;;;;;8413060;28;19924;-77
2022/10/10 09:17:32;;;;;;;;;;;13.20;99.90;;;;;;8370174;28;20256;-78
2022/10/10 09:21:35;;;;;;;;;;;13.30;99.90;;;;;;8433304;27;20366;-78
2022/10/10 09:25:49;;;;;;;;;;;13.20;99.90;;;;;;8433987;28;19920;-78
2022/10/10 09:29:56;;;;;;;;;;;13.20;99.90;;;;;;8432183;28;20482;-78
2022/10/10 09:34:04;;;;;;;;;;;13.20;99.90;;;;;;8426924;28;19920;-78
2022/10/10 09:38:24;;;;;;;;;;;13.30;99.90;;;;;;8416251;28;19920;-78
2022/10/10 09:42:30;;;;;;;;;;;13.30;99.90;;;;;;8441719;28;20690;-78
2022/10/10 09:46:31;;;;;;;;;;;13.40;99.90;;;;;;8433799;28;20298;-78
2022/10/10 09:50:33;;;;;;;;;;;13.40;99.90;;;;;;8421754;28;19923;-77
2022/10/10 09:54:35;;;;;;;;;;;13.50;99.90;;;;;;8435646;28;19920;-78
2022/10/10 09:58:40;;;;;;;;;;;13.50;99.90;;;;;;8439729;28;19919;-78
2022/10/10 10:02:41;;;;;;;;;;;13.60;99.90;;;;;;8418469;28;19919;-78
2022/10/10 10:06:44;;;;;;;;;;;13.60;99.90;;;;;;8432756;28;19950;-77
2022/10/10 10:10:46;;;;;;;;;;;13.80;99.90;;;;;;8401301;28;19930;-77
2022/10/10 10:14:48;;;;;;;;;;;14.00;99.90;;;;;;8433851;28;19965;-77
2022/10/10 10:18:49;;;;;;;;;;;14.20;99.90;;;;;;8417119;28;20322;-78
2022/10/10 10:22:51;;;;;;;;;;;14.30;99.90;;;;;;8417324;28;19956;-79
2022/10/10 10:27:07;;;;;;;;;;;14.40;99.90;;;;;;8436745;28;19999;-79
2022/10/10 10:31:20;;;;;;;;;;;14.40;99.90;;;;;;8421480;28;19919;-77
2022/10/10 10:35:31;;;;;;;;;;;14.40;99.90;;;;;;8416608;28;20008;-79
2022/10/10 10:39:39;;;;;;;;;;;14.30;99.90;;;;;;8431145;28;20311;-79
2022/10/10 10:43:59;;;;;;;;;;;14.40;99.90;;;;;;8424429;28;19945;-79
2022/10/10 10:48:19;;;;;;;;;;;14.70;99.90;;;;;;8421339;28;19920;-79
2022/10/10 10:52:30;;;;;;;;;;;14.90;99.90;;;;;;8411878;28;19920;-78
2022/10/10 10:56:40;;;;;;;;;;;15.00;99.90;;;;;;8419635;28;19920;-79
2022/10/10 11:00:50;;;;;;;;;;;14.90;99.90;;;;;;8422804;28;20006;-79
2022/10/10 11:05:33;;;;;;;;;;;14.90;99.90;;;;;;8432849;28;19924;-79
2022/10/10 11:09:44;;;;;;;;;;;14.90;99.90;;;;;;8433755;28;19920;-80
2022/10/10 11:13:51;;;;;;;;;;;14.90;99.90;;;;;;8415450;28;20383;-78
2022/10/10 11:17:59;;;;;;;;;;;14.90;99.90;;;;;;8417877;28;19920;-79
2022/10/10 11:22:04;;;;;;;;;;;14.90;99.90;;;;;;8420195;28;19920;-79
2022/10/10 11:26:09;;;;;;;;;;;14.90;99.90;;;;;;8414465;28;19926;-80
2022/10/10 11:30:15;;;;;;;;;;;14.90;99.90;;;;;;8436866;28;20386;-79
2022/10/10 11:34:28;;;;;;;;;;;14.90;99.90;;;;;;8408273;28;19921;-79
2022/10/10 11:38:38;;;;;;;;;;;15.10;99.90;;;;;;8427960;28;19926;-81
2022/10/10 11:42:47;;;;;;;;;;;15.20;99.90;;;;;;8411180;28;19956;-79
2022/10/10 11:46:52;;;;;;;;;;;15.20;99.90;;;;;;8421803;28;20302;-80
2022/10/10 11:50:59;;;;;;;;;;;15.30;99.90;;;;;;8437163;28;19934;-80
2022/10/10 11:55:21;;;;;;;;;;;15.30;99.90;;;;;;8408477;28;19919;-78
2022/10/10 11:59:24;;;;;;;;;;;15.30;99.90;;;;;;8399121;28;20298;-77
2022/10/10 12:03:26;;;;;;;;;;;15.20;99.90;;;;;;8396766;28;19920;-79
2022/10/10 12:07:31;;;;;;;;;;;15.20;99.90;;;;;;8398842;28;19927;-79
2022/10/10 12:11:38;;;;;;;;;;;15.20;99.90;;;;;;8381735;28;19921;-78
2022/10/10 12:15:40;;;;;;;;;;;15.20;99.90;;;;;;8413089;28;19979;-79
2022/10/10 12:19:53;;;;;;;;;;;15.20;99.90;;;;;;8394470;28;20018;-79
2022/10/10 12:24:09;;;;;;;;;;;15.20;99.90;;;;;;8395526;28;19983;-79
2022/10/10 12:28:13;;;;;;;;;;;15.20;99.90;;;;;;8383777;28;19936;-80
2022/10/10 12:32:18;;;;;;;;;;;15.20;99.90;;;;;;8398808;28;19931;-80
2022/10/10 12:36:19;;;;;;;;;;;15.20;99.90;;;;;;8396642;28;19928;-79
2022/10/10 12:40:21;;;;;;;;;;;15.10;99.90;;;;;;8414869;28;19928;-79
2022/10/10 12:44:40;;;;;;;;;;;15.10;99.90;;;;;;8396119;28;19928;-79
2022/10/10 12:48:42;;;;;;;;;;;15.10;99.90;;;;;;8413188;28;19930;-79
2022/10/10 12:52:46;;;;;;;;;;;15.10;99.90;;;;;;8399822;28;20253;-80
2022/10/10 12:56:49;;;;;;;;;;;15.10;99.90;;;;;;8401922;28;19924;-80
2022/10/10 13:00:51;;;;;;;;;;;15.10;99.90;;;;;;8406539;28;19928;-79
2022/10/10 13:04:54;;;;;;;;;;;15.10;99.90;;;;;;8405006;28;20349;-79
2022/10/10 13:08:56;;;;;;;;;;;15.10;99.90;;;;;;8396555;28;20321;-79
2022/10/10 13:13:00;;;;;;;;;;;15.10;99.90;;;;;;8406252;28;19924;-81
2022/10/10 13:17:01;;;;;;;;;;;15.10;99.90;;;;;;8403139;28;20245;-80
2022/10/10 13:21:04;;;;;;;;;;;15.10;99.90;;;;;;8405098;28;19924;-80
2022/10/10 13:25:08;;;;;;;;;;;15.00;99.90;;;;;;8412739;28;19920;-79
2022/10/10 13:29:16;;;;;;;;;;;15.00;99.90;;;;;;8399858;28;19963;-81
2022/10/10 13:33:19;;;;;;;;;;;15.00;99.90;;;;;;8412664;28;19920;-80
2022/10/10 13:37:21;;;;;;;;;;;15.00;99.90;;;;;;8412786;28;20375;-81
2022/10/10 13:41:24;;;;;;;;;;;14.90;99.90;;;;;;8405360;28;19921;-80
2022/10/10 13:45:59;;;;;;;;;;;14.90;99.90;;;;;;8418107;27;20276;-80
2022/10/10 13:50:01;;;;;;;;;;;15.00;99.90;;;;;;8369409;28;24388;-81
2022/10/10 13:54:03;;;;;;;;;;;15.00;99.90;;;;;;8411996;27;19927;-79
2022/10/10 13:58:07;;;;;;;;;;;14.90;99.90;;;;;;8422474;28;19932;-79
2022/10/10 14:02:14;;;;;;;;;;;14.70;99.90;;;;;;8403273;28;19924;-80
2022/10/10 14:06:16;;;;;;;;;;;14.50;99.90;;;;;;8404291;28;19920;-80
2022/10/10 14:10:21;;;;;;;;;;;14.40;99.90;;;;;;8403664;28;19920;-79
2022/10/10 14:14:24;;;;;;;;;;;14.30;99.90;;;;;;8382164;28;20489;-79
2022/10/10 14:18:26;;;;;;;;;;;14.20;99.90;;;;;;8399480;28;19928;-80
2022/10/10 14:22:27;;;;;;;;;;;14.10;99.90;;;;;;8396580;28;20010;-80
2022/10/10 14:26:29;;;;;;;;;;;14.00;99.90;;;;;;8400563;28;19927;-80
2022/10/10 14:30:30;;;;;;;;;;;13.90;99.90;;;;;;8403525;28;19927;-80
2022/10/10 14:34:32;;;;;;;;;;;13.90;99.90;;;;;;8392076;28;19928;-79
2022/10/10 14:38:34;;;;;;;;;;;13.80;99.90;;;;;;8405827;28;19920;-80
2022/10/10 14:42:35;;;;;;;;;;;13.80;99.90;;;;;;8403118;28;19925;-80
2022/10/10 14:46:38;;;;;;;;;;;13.90;99.90;;;;;;8391259;28;19928;-81
2022/10/10 14:50:42;;;;;;;;;;;13.90;99.90;;;;;;8399986;28;19920;-79
2022/10/10 14:54:44;;;;;;;;;;;13.90;99.90;;;;;;8401713;28;19943;-80
2022/10/10 14:58:46;;;;;;;;;;;13.90;99.90;;;;;;8403712;28;19928;-80
2022/10/10 15:02:47;;;;;;;;;;;14.00;99.90;;;;;;8402978;28;19924;-79
2022/10/10 15:06:49;;;;;;;;;;;14.10;99.90;;;;;;8397722;28;19931;-79
2022/10/10 15:11:14;;;;;;;;;;;14.10;99.90;;;;;;8395302;28;19925;-79
2022/10/10 15:15:16;;;;;;;;;;;14.20;99.90;;;;;;8400402;28;20437;-79
2022/10/10 15:19:17;;;;;;;;;;;14.20;99.90;;;;;;8402348;28;19928;-79
2022/10/10 15:23:20;;;;;;;;;;;14.30;99.90;;;;;;8398088;28;20018;-80
2022/10/10 15:27:21;;;;;;;;;;;14.30;99.90;;;;;;8392192;28;21210;-80
2022/10/10 15:31:29;;;;;;;;;;;14.30;99.90;;;;;;8396449;28;19928;-81
2022/10/10 15:35:30;;;;;;;;;;;14.40;99.90;;;;;;8395803;28;19924;-80
2022/10/10 15:39:51;;;;;;;;;;;14.60;99.90;;;;;;8412672;27;19928;-79
2022/10/10 15:43:53;;;;;;;;;;;14.70;99.90;;;;;;8389324;28;19934;-80
2022/10/10 15:47:54;;;;;;;;;;;14.70;99.90;;;;;;8399453;28;19959;-79
2022/10/10 15:51:56;;;;;;;;;;;14.70;99.90;;;;;;8393958;28;19920;-79
2022/10/10 15:55:58;;;;;;;;;;;14.60;99.90;;;;;;8396265;28;19927;-79
2022/10/10 15:59:59;;;;;;;;;;;14.50;99.90;;;;;;8400633;28;20015;-79
2022/10/10 16:04:02;;;;;;;;;;;14.50;99.90;;;;;;8394142;28;19928;-79
2022/10/10 16:08:04;;;;;;;;;;;14.40;99.90;;;;;;8394442;28;19932;-79
2022/10/10 16:12:06;;;;;;;;;;;14.40;99.90;;;;;;8398099;28;19920;-79
2022/10/10 16:16:10;;;;;;;;;;;14.40;99.90;;;;;;8391577;28;19924;-79
2022/10/10 16:20:11;;;;;;;;;;;14.40;99.90;;;;;;8401552;28;20026;-80
2022/10/10 16:24:13;;;;;;;;;;;14.30;99.90;;;;;;8396476;28;19943;-79
2022/10/10 16:28:15;;;;;;;;;;;14.30;99.90;;;;;;8399987;28;19920;-80
2022/10/10 16:32:16;;;;;;;;;;;14.30;99.90;;;;;;8388865;28;19927;-80
2022/10/10 16:36:19;;;;;;;;;;;14.30;99.90;;;;;;8393074;28;20372;-80
2022/10/10 16:40:21;;;;;;;;;;;14.20;99.90;;;;;;8374703;28;19920;-80
2022/10/10 16:44:23;;;;;;;;;;;14.20;99.90;;;;;;8397898;28;20349;-80
2022/10/10 16:48:25;;;;;;;;;;;14.10;99.90;;;;;;8395252;28;19928;-80
2022/10/10 16:52:26;;;;;;;;;;;14.10;99.90;;;;;;8412385;28;21860;-80
2022/10/10 16:56:28;;;;;;;;;;;14.00;99.90;;;;;;8396929;28;19942;-80
2022/10/10 17:00:30;;;;;;;;;;;14.00;99.90;;;;;;8407051;28;19972;-80
2022/10/10 17:04:32;;;;;;;;;;;13.90;99.90;;;;;;8392189;28;19932;-80
2022/10/10 17:08:33;;;;;;;;;;;13.90;99.90;;;;;;8401536;28;19927;-80
2022/10/10 17:12:35;;;;;;;;;;;13.70;99.90;;;;;;8394871;28;19984;-80
2022/10/10 17:16:36;;;;;;;;;;;13.60;99.90;;;;;;8395990;28;19931;-80
2022/10/10 17:20:58;;;;;;;;;;;13.50;99.90;;;;;;8394459;28;19920;-80
2022/10/10 17:25:00;;;;;;;;;;;13.40;99.90;;;;;;8391494;28;20009;-79
2022/10/10 17:29:02;;;;;;;;;;;13.30;99.90;;;;;;8408529;28;19927;-79
2022/10/10 17:33:03;;;;;;;;;;;13.10;99.90;;;;;;8417365;28;19941;-79
2022/10/10 17:37:05;;;;;;;;;;;13.00;99.90;;;;;;8395352;28;19928;-79
2022/10/10 17:41:07;;;;;;;;;;;12.90;99.90;;;;;;8382475;28;19924;-79
2022/10/10 17:45:09;;;;;;;;;;;12.80;99.90;;;;;;8397909;28;19919;-79
2022/10/10 17:49:11;;;;;;;;;;;12.70;99.90;;;;;;8408528;28;19920;-80
2022/10/10 17:53:13;;;;;;;;;;;12.60;99.90;;;;;;8404457;28;19928;-79
2022/10/10 17:57:14;;;;;;;;;;;12.50;99.90;;;;;;8402782;28;19921;-79
2022/10/10 18:01:17;;;;;;;;;;;12.40;99.90;;;;;;8398254;28;19930;-79
2022/10/10 18:05:18;;;;;;;;;;;12.30;99.90;;;;;;8401821;28;19975;-79
2022/10/10 18:09:20;;;;;;;;;;;12.20;99.90;;;;;;8407816;28;20009;-80
2022/10/10 18:13:21;;;;;;;;;;;12.20;99.90;;;;;;8399131;28;19927;-80
2022/10/10 18:17:23;;;;;;;;;;;12.10;99.90;;;;;;8401141;28;19931;-80
2022/10/10 18:21:25;;;;;;;;;;;12.00;99.90;;;;;;8404505;28;19967;-79
2022/10/10 18:25:27;;;;;;;;;;;12.00;99.90;;;;;;8406746;28;19924;-80
2022/10/10 18:29:28;;;;;;;;;;;11.90;99.90;;;;;;8387869;28;19931;-79
2022/10/10 18:33:30;;;;;;;;;;;11.90;99.90;;;;;;8400943;28;20357;-80
2022/10/10 18:37:33;;;;;;;;;;;11.80;99.90;;;;;;8403334;28;19924;-79
2022/10/10 18:41:35;;;;;;;;;;;11.80;99.90;;;;;;8397422;28;19924;-80
2022/10/10 18:45:37;;;;;;;;;;;11.70;99.90;;;;;;8384329;28;19920;-79
2022/10/10 18:49:38;;;;;;;;;;;11.60;99.90;;;;;;8406999;28;20366;-79
2022/10/10 18:53:41;;;;;;;;;;;11.60;99.90;;;;;;8378417;28;19994;-79
2022/10/10 18:57:43;;;;;;;;;;;11.50;99.90;;;;;;8386651;28;19931;-79
2022/10/10 19:01:45;;;;;;;;;;;11.50;99.90;;;;;;8414204;27;19928;-79
2022/10/10 19:05:47;;;;;;;;;;;11.40;99.90;;;;;;8396170;28;20307;-80
2022/10/10 19:09:48;;;;;;;;;;;11.30;99.90;;;;;;8400378;28;19990;-80
2022/10/10 19:13:50;;;;;;;;;;;11.30;99.90;;;;;;8397099;28;20438;-81
2022/10/10 19:17:52;;;;;;;;;;;11.30;99.90;;;;;;8399321;28;19982;-79
2022/10/10 19:21:53;;;;;;;;;;;11.20;99.90;;;;;;8396598;28;19924;-79
2022/10/10 19:25:55;;;;;;;;;;;11.20;99.90;;;;;;8391945;28;20009;-79
2022/10/10 19:29:57;;;;;;;;;;;11.20;99.90;;;;;;8401576;28;20022;-80
2022/10/10 19:33:59;;;;;;;;;;;11.20;99.90;;;;;;8396983;28;20400;-80
2022/10/10 19:38:01;;;;;;;;;;;11.10;99.90;;;;;;8394323;28;20323;-80
2022/10/10 19:42:03;;;;;;;;;;;11.00;99.90;;;;;;8394782;28;20026;-79
2022/10/10 19:46:05;;;;;;;;;;;11.00;99.90;;;;;;8395029;28;20641;-79
2022/10/10 19:50:07;;;;;;;;;;;10.90;99.90;;;;;;8394879;28;19978;-79
2022/10/10 19:54:09;;;;;;;;;;;10.90;99.90;;;;;;8397184;28;19928;-79
2022/10/10 19:58:11;;;;;;;;;;;10.80;99.90;;;;;;8394635;28;20290;-79
2022/10/10 20:02:12;;;;;;;;;;;10.70;99.90;;;;;;8398777;28;20347;-80
2022/10/10 20:06:15;;;;;;;;;;;10.70;99.90;;;;;;8393471;28;19978;-79
2022/10/10 20:10:17;;;;;;;;;;;10.70;99.90;;;;;;8400534;28;19942;-79
2022/10/10 20:14:19;;;;;;;;;;;10.60;99.90;;;;;;8392479;28;19936;-79
2022/10/10 20:18:21;;;;;;;;;;;10.50;99.90;;;;;;8409174;27;20011;-79
2022/10/10 20:22:22;;;;;;;;;;;10.50;99.90;;;;;;8393058;28;20362;-79
2022/10/10 20:26:25;;;;;;;;;;;10.40;99.90;;;;;;8403254;28;20014;-80
2022/10/10 20:30:27;;;;;;;;;;;10.40;99.90;;;;;;8398339;28;19935;-79
2022/10/10 20:34:28;;;;;;;;;;;10.30;99.90;;;;;;8397853;28;19931;-79
2022/10/10 20:38:30;;;;;;;;;;;10.30;99.90;;;;;;8396434;28;19946;-80
2022/10/10 20:42:32;;;;;;;;;;;10.20;99.90;;;;;;8407370;28;19932;-79
2022/10/10 20:46:34;;;;;;;;;;;10.20;99.90;;;;;;8411056;28;20350;-80
2022/10/10 20:50:37;;;;;;;;;;;10.10;99.90;;;;;;8385686;28;20011;-79
2022/10/10 20:54:38;;;;;;;;;;;10.00;99.90;;;;;;8394474;28;19926;-80
2022/10/10 20:58:40;;;;;;;;;;;10.00;99.90;;;;;;8393354;28;19924;-79
2022/10/10 21:02:42;;;;;;;;;;;9.90;99.90;;;;;;8425135;28;20290;-79
2022/10/10 21:06:43;;;;;;;;;;;9.90;99.90;;;;;;8427458;28;19923;-79
2022/10/10 21:10:45;;;;;;;;;;;9.90;99.90;;;;;;8432196;28;19923;-79
2022/10/10 21:14:47;;;;;;;;;;;9.80;99.90;;;;;;8425009;28;19923;-79
2022/10/10 21:18:49;;;;;;;;;;;9.80;99.90;;;;;;8425982;28;19957;-79
2022/10/10 21:22:58;;;;;;;;;;;9.70;99.90;;;;;;8428170;28;20005;-79
2022/10/10 21:26:59;;;;;;;;;;;9.70;99.90;;;;;;8418172;28;19920;-79
2022/10/10 21:31:01;;;;;;;;;;;9.60;99.90;;;;;;8448185;28;19920;-79
2022/10/10 21:35:03;;;;;;;;;;;9.60;99.90;;;;;;8425299;28;20374;-79
2022/10/10 21:39:07;;;;;;;;;;;9.50;99.90;;;;;;8418543;28;19920;-80
2022/10/10 21:43:09;;;;;;;;;;;9.50;99.90;;;;;;8423325;28;19983;-79
2022/10/10 21:47:11;;;;;;;;;;;9.40;99.90;;;;;;8428620;28;19920;-79
2022/10/10 21:51:14;;;;;;;;;;;9.40;99.90;;;;;;8423063;28;20312;-80
2022/10/10 21:55:16;;;;;;;;;;;9.40;99.90;;;;;;8439795;28;19950;-79
2022/10/10 21:59:18;;;;;;;;;;;9.30;99.90;;;;;;8428327;28;19934;-79
2022/10/10 22:03:19;;;;;;;;;;;9.30;99.90;;;;;;8432157;28;19924;-79
2022/10/10 22:07:21;;;;;;;;;;;9.20;99.90;;;;;;8423970;28;19956;-79
2022/10/10 22:11:23;;;;;;;;;;;9.20;99.90;;;;;;8431490;28;20370;-79
2022/10/10 22:15:25;;;;;;;;;;;9.20;99.90;;;;;;8406931;28;19928;-79
2022/10/10 22:19:26;;;;;;;;;;;9.10;99.90;;;;;;8421725;28;19931;-80
2022/10/10 22:23:29;;;;;;;;;;;9.10;99.90;;;;;;8409788;28;19996;-79
2022/10/10 22:27:30;;;;;;;;;;;9.00;99.90;;;;;;8433140;28;20007;-79
2022/10/10 22:31:36;;;;;;;;;;;9.00;99.90;;;;;;8437106;28;20298;-79
2022/10/10 22:35:38;;;;;;;;;;;9.00;99.90;;;;;;8436850;28;20019;-79
2022/10/10 22:39:40;;;;;;;;;;;9.00;99.90;;;;;;8439907;28;19920;-79
2022/10/10 22:43:42;;;;;;;;;;;8.90;99.90;;;;;;8417438;28;19940;-79
2022/10/10 22:47:43;;;;;;;;;;;8.90;99.90;;;;;;8425179;28;19926;-79
2022/10/10 22:51:45;;;;;;;;;;;8.90;99.90;;;;;;8432706;28;19930;-79
2022/10/10 22:55:47;;;;;;;;;;;8.80;99.90;;;;;;8435462;28;19923;-80
2022/10/10 23:10:14;;;;;;;;;;;8.80;99.90;;;;;;8420376;28;20000;-79
2022/10/10 23:14:17;;;;;;;;;;;8.80;99.90;;;;;;8421924;28;19927;-79
2022/10/10 23:18:19;;;;;;;;;;;8.80;99.90;;;;;;8414961;28;19920;-79
2022/10/10 23:22:20;;;;;;;;;;;8.70;99.90;;;;;;8423944;28;20278;-79
2022/10/10 23:26:22;;;;;;;;;;;8.70;99.90;;;;;;8442842;27;19926;-79
2022/10/10 23:30:23;;;;;;;;;;;8.60;99.90;;;;;;8417072;28;19926;-79
2022/10/10 23:34:25;;;;;;;;;;;8.60;99.90;;;;;;8442922;27;19927;-79
2022/10/10 23:38:27;;;;;;;;;;;8.50;99.90;;;;;;8404784;28;20363;-78
2022/10/10 23:42:29;;;;;;;;;;;8.50;99.90;;;;;;8431301;28;19920;-79
2022/10/10 23:46:31;;;;;;;;;;;8.40;99.90;;;;;;8424442;28;20367;-79
2022/10/10 23:50:32;;;;;;;;;;;8.40;99.90;;;;;;8438169;27;20436;-80
2022/10/10 23:54:34;;;;;;;;;;;8.40;99.90;;;;;;8424018;28;19970;-79